createdAt,value
2018-05-10T00:01:23.169Z,92914.26
2018-05-10T00:03:51.116Z,92914.12
2018-05-10T00:06:18.815Z,92915.05
2018-05-10T00:08:46.369Z,92921.00
2018-05-10T00:11:13.916Z,92923.42
2018-05-10T00:13:41.508Z,92923.13
2018-05-10T00:16:09.042Z,92922.94
2018-05-10T00:18:36.683Z,92920.41
2018-05-10T00:21:04.288Z,92917.63
2018-05-10T00:23:31.832Z,92916.22
2018-05-10T00:25:59.382Z,92908.17
2018-05-10T00:28:26.974Z,92914.89
2018-05-10T00:30:54.519Z,92913.19
2018-05-10T00:33:22.074Z,92909.33
2018-05-10T00:35:49.661Z,92911.97
2018-05-10T00:38:17.198Z,92904.20
2018-05-10T00:40:44.743Z,92908.62
2018-05-10T00:43:12.303Z,92906.77
2018-05-10T00:45:39.868Z,92913.93
2018-05-10T00:48:07.420Z,92918.57
2018-05-10T00:50:35.142Z,92918.38
2018-05-10T00:53:02.699Z,92925.69
2018-05-10T00:55:30.237Z,92917.70
2018-05-10T00:57:57.814Z,92927.02
2018-05-10T01:00:25.360Z,92920.12
2018-05-10T01:02:52.920Z,92921.08
2018-05-10T01:05:20.591Z,92913.47
2018-05-10T01:07:48.131Z,92904.81
2018-05-10T01:10:15.683Z,92902.10
2018-05-10T01:12:43.273Z,92897.13
2018-05-10T01:15:10.811Z,92905.11
2018-05-10T01:17:38.367Z,92907.23
2018-05-10T01:20:06.086Z,92906.11
2018-05-10T01:22:33.644Z,92907.30
2018-05-10T01:25:01.196Z,92905.61
2018-05-10T01:27:28.870Z,92911.14
2018-05-10T01:29:56.428Z,92918.59
2018-05-10T01:32:23.973Z,92915.43
2018-05-10T01:35:03.425Z,92913.21
2018-05-10T01:37:30.977Z,92915.73
2018-05-10T01:39:58.513Z,92913.80
2018-05-10T01:42:26.280Z,92919.09
2018-05-10T01:44:53.827Z,92911.77
2018-05-10T01:47:21.363Z,92917.72
2018-05-10T01:49:48.952Z,92922.45
2018-05-10T01:52:16.502Z,92919.93
2018-05-10T01:54:44.078Z,92923.01
2018-05-10T01:57:11.811Z,92920.97
2018-05-10T01:59:39.616Z,92922.44
2018-05-10T02:02:07.151Z,92924.81
2018-05-10T02:04:34.723Z,92917.84
2018-05-10T02:07:02.271Z,92916.84
2018-05-10T02:09:29.811Z,92910.43
2018-05-10T02:11:57.760Z,92917.66
2018-05-10T02:14:25.304Z,92922.70
2018-05-10T02:16:52.858Z,92921.95
2018-05-10T02:19:20.436Z,92924.00
2018-05-10T02:21:47.966Z,92922.06
2018-05-10T02:24:15.520Z,92923.53
2018-05-10T02:26:43.073Z,92926.58
2018-05-10T02:29:10.626Z,92923.98
2018-05-10T02:31:38.324Z,92913.66
2018-05-10T02:34:05.862Z,92914.42
2018-05-10T02:36:33.408Z,92914.91
2018-05-10T02:39:00.978Z,92917.97
2018-05-10T02:41:28.554Z,92918.11
2018-05-10T02:43:56.097Z,92924.56
2018-05-10T02:46:24.081Z,92929.16
2018-05-10T02:48:51.623Z,92929.17
2018-05-10T02:51:19.166Z,92934.31
2018-05-10T02:53:46.892Z,92935.61
2018-05-10T02:56:14.440Z,92941.51
2018-05-10T02:58:42.021Z,92940.58
2018-05-10T03:01:09.714Z,92946.27
2018-05-10T03:03:37.286Z,92954.25
2018-05-10T03:06:04.834Z,92944.57
2018-05-10T03:08:32.647Z,92958.81
2018-05-10T03:11:00.187Z,92955.27
2018-05-10T03:13:27.739Z,92953.66
2018-05-10T03:15:55.316Z,92954.92
2018-05-10T03:18:22.856Z,92950.36
2018-05-10T03:20:50.405Z,92968.89
2018-05-10T03:23:18.120Z,92959.86
2018-05-10T03:25:45.709Z,92971.89
2018-05-10T03:28:13.267Z,92974.58
2018-05-10T03:30:40.974Z,92972.36
2018-05-10T03:33:08.515Z,92977.34
2018-05-10T03:35:36.067Z,92978.36
2018-05-10T03:38:03.643Z,92977.36
2018-05-10T03:40:31.243Z,92976.27
2018-05-10T03:42:58.795Z,92973.60
2018-05-10T03:45:26.688Z,92972.47
2018-05-10T03:47:54.228Z,92974.61
2018-05-10T03:50:21.790Z,92978.43
2018-05-10T03:52:49.372Z,92981.23
2018-05-10T03:55:16.912Z,92981.03
2018-05-10T03:57:44.461Z,92974.55
2018-05-10T04:00:12.044Z,92978.55
2018-05-10T04:02:51.314Z,92973.83
2018-05-10T04:05:30.622Z,92975.00
2018-05-10T04:08:09.980Z,92983.77
2018-05-10T04:10:49.330Z,92982.19
2018-05-10T04:13:16.875Z,92988.97
2018-05-10T04:15:44.410Z,92988.40
2018-05-10T04:18:11.988Z,92993.71
2018-05-10T04:20:39.532Z,92987.45
2018-05-10T04:23:07.082Z,92991.31
2018-05-10T04:25:34.624Z,92993.18
2018-05-10T04:28:02.176Z,92998.45
2018-05-10T04:30:29.762Z,93003.52
2018-05-10T04:32:57.312Z,93002.63
2018-05-10T04:35:24.851Z,93002.73
2018-05-10T04:37:52.568Z,92998.49
2018-05-10T04:40:20.120Z,93003.55
2018-05-10T04:42:47.664Z,93002.69
2018-05-10T04:45:15.464Z,92995.94
2018-05-10T04:47:43.016Z,92996.33
2018-05-10T04:50:10.563Z,93002.06
2018-05-10T04:52:38.143Z,93005.08
2018-05-10T04:55:05.693Z,93000.67
2018-05-10T04:57:33.245Z,92996.45
2018-05-10T05:00:00.862Z,93000.47
2018-05-10T05:02:28.411Z,92995.28
2018-05-10T05:04:55.956Z,93003.24
2018-05-10T05:07:23.524Z,93006.95
2018-05-10T05:09:51.059Z,93008.60
2018-05-10T05:12:18.609Z,93005.48
2018-05-10T05:14:46.175Z,93011.14
2018-05-10T05:17:13.720Z,93011.78
2018-05-10T05:19:41.288Z,93020.08
2018-05-10T05:22:08.861Z,93015.58
2018-05-10T05:24:36.408Z,93018.61
2018-05-10T05:27:03.971Z,93023.36
2018-05-10T05:29:31.551Z,93027.71
2018-05-10T05:31:59.098Z,93029.00
2018-05-10T05:34:26.655Z,93031.53
2018-05-10T05:36:54.343Z,93028.49
2018-05-10T05:39:21.902Z,93029.84
2018-05-10T05:41:49.453Z,93035.30
2018-05-10T05:44:17.375Z,93038.64
2018-05-10T05:46:44.945Z,93039.02
2018-05-10T05:49:12.519Z,93044.11
2018-05-10T05:51:40.252Z,93044.97
2018-05-10T05:54:07.809Z,93044.01
2018-05-10T05:56:35.352Z,93050.51
2018-05-10T05:59:02.950Z,93051.95
2018-05-10T06:01:30.500Z,93045.38
2018-05-10T06:03:58.034Z,93051.94
2018-05-10T06:06:25.756Z,93051.31
2018-05-10T06:08:53.304Z,93050.27
2018-05-10T06:11:20.857Z,93053.83
2018-05-10T06:13:48.545Z,93054.29
2018-05-10T06:16:16.100Z,93059.78
2018-05-10T06:18:43.653Z,93059.54
2018-05-10T06:21:11.375Z,93060.66
2018-05-10T06:23:38.947Z,93055.22
2018-05-10T06:26:06.488Z,93057.55
2018-05-10T06:28:34.376Z,93056.13
2018-05-10T06:31:01.921Z,93058.03
2018-05-10T06:33:29.484Z,93059.53
2018-05-10T06:35:57.080Z,93058.70
2018-05-10T06:38:24.620Z,93061.48
2018-05-10T06:40:52.177Z,93054.98
2018-05-10T06:43:19.914Z,93055.78
2018-05-10T06:45:47.464Z,93061.35
2018-05-10T06:48:15.000Z,93066.30
2018-05-10T06:50:42.583Z,93064.32
2018-05-10T06:53:10.127Z,93063.64
2018-05-10T06:55:37.674Z,93066.50
2018-05-10T06:58:05.458Z,93063.88
2018-05-10T07:00:33.004Z,93066.69
2018-05-10T07:03:00.556Z,93065.48
2018-05-10T07:05:28.148Z,93063.09
2018-05-10T07:07:55.680Z,93068.05
2018-05-10T07:10:23.212Z,93065.98
2018-05-10T07:12:50.788Z,93066.23
2018-05-10T07:15:18.328Z,93071.30
2018-05-10T07:17:45.888Z,93073.98
2018-05-10T07:20:13.613Z,93067.30
2018-05-10T07:22:41.163Z,93078.17
2018-05-10T07:25:08.784Z,93071.05
2018-05-10T07:27:36.278Z,93063.45
2018-05-10T07:30:03.862Z,93067.34
2018-05-10T07:32:31.440Z,93068.38
2018-05-10T07:34:58.991Z,93075.63
2018-05-10T07:37:26.556Z,93073.16
2018-05-10T07:39:54.145Z,93073.16
2018-05-10T07:42:21.688Z,93076.64
2018-05-10T07:44:49.221Z,93075.68
2018-05-10T07:47:16.870Z,93076.18
2018-05-10T07:49:44.366Z,93074.13
2018-05-10T07:52:11.901Z,93070.17
2018-05-10T07:54:39.484Z,93074.80
2018-05-10T07:57:07.026Z,93077.66
2018-05-10T07:59:34.561Z,93078.02
2018-05-10T08:02:02.752Z,93080.94
2018-05-10T08:04:30.307Z,93081.84
2018-05-10T08:06:57.859Z,93084.92
2018-05-10T08:09:25.439Z,93086.82
2018-05-10T08:11:52.986Z,93087.17
2018-05-10T08:14:20.530Z,93098.55
2018-05-10T08:16:48.245Z,93096.84
2018-05-10T08:19:15.988Z,93097.38
2018-05-10T08:21:43.519Z,93100.50
2018-05-10T08:24:11.325Z,93095.83
2018-05-10T08:26:38.816Z,93095.66
2018-05-10T08:29:06.348Z,93098.90
2018-05-10T08:31:33.914Z,93102.94
2018-05-10T08:34:01.450Z,93103.39
2018-05-10T08:36:29.010Z,93104.32
2018-05-10T08:38:56.730Z,93102.57
2018-05-10T08:41:24.269Z,93097.80
2018-05-10T08:43:51.808Z,93106.97
2018-05-10T08:46:19.532Z,93097.84
2018-05-10T08:48:47.067Z,93099.37
2018-05-10T08:51:14.619Z,93102.95
2018-05-10T08:53:42.198Z,93108.88
2018-05-10T08:56:09.732Z,93099.19
2018-05-10T08:58:37.268Z,93099.78
2018-05-10T09:01:04.851Z,93100.12
2018-05-10T09:03:32.384Z,93107.09
2018-05-10T09:05:59.921Z,93107.55
2018-05-10T09:08:27.605Z,93116.59
2018-05-10T09:10:55.161Z,93103.95
2018-05-10T09:13:22.696Z,93105.84
2018-05-10T09:15:50.276Z,93110.27
2018-05-10T09:18:17.820Z,93113.96
2018-05-10T09:20:45.351Z,93103.61
2018-05-10T09:23:13.089Z,93101.80
2018-05-10T09:25:40.627Z,93102.28
2018-05-10T09:28:08.175Z,93103.78
2018-05-10T09:30:35.865Z,93101.70
2018-05-10T09:33:03.408Z,93099.16
2018-05-10T09:35:30.970Z,93095.50
2018-05-10T09:37:58.557Z,93085.82
2018-05-10T09:40:26.105Z,93089.36
2018-05-10T09:42:53.645Z,93091.64
2018-05-10T09:45:21.213Z,93090.35
2018-05-10T09:47:48.760Z,93084.24
2018-05-10T09:50:16.297Z,93079.37
2018-05-10T09:52:44.044Z,93069.57
2018-05-10T09:55:11.600Z,93066.30
2018-05-10T09:57:39.144Z,93074.25
2018-05-10T10:00:06.764Z,93064.11
2018-05-10T10:02:34.310Z,93061.73
2018-05-10T10:05:01.852Z,93064.00
2018-05-10T10:07:29.437Z,93067.72
2018-05-10T10:09:56.967Z,93062.12
2018-05-10T10:12:24.509Z,93061.80
2018-05-10T10:14:52.415Z,93060.23
2018-05-10T10:17:19.980Z,93062.17
2018-05-10T10:19:47.519Z,93060.66
2018-05-10T10:22:15.084Z,93056.92
2018-05-10T10:24:42.628Z,93061.06
2018-05-10T10:27:10.168Z,93062.18
2018-05-10T10:29:37.891Z,93069.30
2018-05-10T10:32:05.438Z,93062.53
2018-05-10T10:34:33.048Z,93063.27
2018-05-10T10:37:00.588Z,93067.47
2018-05-10T10:39:28.129Z,93074.41
2018-05-10T10:41:55.677Z,93073.07
2018-05-10T10:44:23.235Z,93079.69
2018-05-10T10:46:50.788Z,93081.08
2018-05-10T10:49:18.340Z,93084.26
2018-05-10T10:51:45.898Z,93077.41
2018-05-10T10:54:13.435Z,93081.02
2018-05-10T10:56:40.985Z,93080.02
2018-05-10T10:59:08.962Z,93086.01
2018-05-10T11:01:36.546Z,93086.35
2018-05-10T11:04:04.073Z,93082.45
2018-05-10T11:06:31.660Z,93084.20
2018-05-10T11:08:59.199Z,93080.33
2018-05-10T11:11:26.763Z,93080.19
2018-05-10T11:13:54.444Z,93074.34
2018-05-10T11:16:21.989Z,93075.62
2018-05-10T11:18:49.549Z,93071.20
2018-05-10T11:21:17.133Z,93076.29
2018-05-10T11:23:44.675Z,93071.41
2018-05-10T11:26:12.236Z,93080.55
2018-05-10T11:28:39.820Z,93070.15
2018-05-10T11:31:07.353Z,93079.52
2018-05-10T11:33:34.888Z,93075.44
2018-05-10T11:36:02.616Z,93070.03
2018-05-10T11:38:30.185Z,93065.97
2018-05-10T11:40:57.727Z,93069.67
2018-05-10T11:43:25.300Z,93072.14
2018-05-10T11:45:52.879Z,93070.73
2018-05-10T11:48:20.442Z,93068.86
2018-05-10T11:50:48.187Z,93068.13
2018-05-10T11:53:15.733Z,93073.17
2018-05-10T11:55:43.281Z,93070.88
2018-05-10T11:58:10.888Z,93078.02
2018-05-10T12:00:38.565Z,93094.75
2018-05-10T12:03:06.108Z,93106.08
2018-05-10T12:05:33.828Z,93100.16
2018-05-10T12:08:01.362Z,93108.64
2018-05-10T12:10:28.901Z,93106.34
2018-05-10T12:12:56.463Z,93113.48
2018-05-10T12:15:24.017Z,93114.95
2018-05-10T12:17:51.574Z,93122.31
2018-05-10T12:20:19.386Z,93118.78
2018-05-10T12:22:46.978Z,93123.48
2018-05-10T12:25:14.519Z,93133.45
2018-05-10T12:27:42.069Z,93126.47
2018-05-10T12:30:09.620Z,93126.02
2018-05-10T12:32:37.187Z,93124.98
2018-05-10T12:35:04.737Z,93126.92
2018-05-10T12:37:32.337Z,93124.80
2018-05-10T12:40:00.040Z,93125.25
2018-05-10T12:42:27.590Z,93118.94
2018-05-10T12:44:55.136Z,93124.20
2018-05-10T12:47:22.721Z,93122.53
2018-05-10T12:49:50.260Z,93121.95
2018-05-10T12:52:17.858Z,93126.53
2018-05-10T12:54:45.575Z,93130.47
2018-05-10T12:57:13.117Z,93130.00
2018-05-10T12:59:40.660Z,93120.99
2018-05-10T13:02:08.244Z,93123.64
2018-05-10T13:04:35.803Z,93131.48
2018-05-10T13:07:03.355Z,93133.64
2018-05-10T13:09:31.032Z,93137.14
2018-05-10T13:11:58.675Z,93132.52
2018-05-10T13:14:26.231Z,93147.11
2018-05-10T13:16:53.819Z,93138.73
2018-05-10T13:19:21.416Z,93141.51
2018-05-10T13:21:49.018Z,93143.16
2018-05-10T13:24:16.571Z,93141.07
2018-05-10T13:26:44.114Z,93145.53
2018-05-10T13:29:11.650Z,93144.38
2018-05-10T13:31:39.214Z,93146.48
2018-05-10T13:34:06.765Z,93143.56
2018-05-10T13:36:34.361Z,93144.70
2018-05-10T13:39:01.937Z,93141.71
2018-05-10T13:41:29.537Z,93147.84
2018-05-10T13:43:57.082Z,93153.12
2018-05-10T13:46:24.687Z,93156.80
2018-05-10T13:48:52.227Z,93158.89
2018-05-10T13:51:19.759Z,93161.06
2018-05-10T13:53:47.331Z,93165.03
2018-05-10T13:56:14.871Z,93173.32
2018-05-10T13:58:42.442Z,93170.29
2018-05-10T14:01:10.148Z,93178.38
2018-05-10T14:03:37.713Z,93175.03
2018-05-10T14:06:05.251Z,93173.39
2018-05-10T14:08:32.839Z,93186.03
2018-05-10T14:11:00.408Z,93184.08
2018-05-10T14:13:27.980Z,93187.34
2018-05-10T14:15:55.573Z,93190.95
2018-05-10T14:18:23.138Z,93189.67
2018-05-10T14:20:50.681Z,93190.73
2018-05-10T14:23:18.364Z,93190.30
2018-05-10T14:25:45.914Z,93196.61
2018-05-10T14:28:13.458Z,93207.26
2018-05-10T14:30:41.028Z,93197.57
2018-05-10T14:33:08.631Z,93207.73
2018-05-10T14:35:36.184Z,93213.45
2018-05-10T14:38:03.774Z,93209.78
2018-05-10T14:40:31.312Z,93211.42
2018-05-10T14:42:58.903Z,93213.40
2018-05-10T14:45:26.866Z,93223.03
2018-05-10T14:47:54.405Z,93227.04
2018-05-10T14:50:21.960Z,93223.42
2018-05-10T14:52:49.682Z,93219.63
2018-05-10T14:55:17.236Z,93215.42
2018-05-10T14:57:44.775Z,93217.03
2018-05-10T15:00:12.497Z,93217.94
2018-05-10T15:02:40.060Z,93210.52
2018-05-10T15:05:07.635Z,93216.44
2018-05-10T15:07:35.717Z,93220.22
2018-05-10T15:10:03.274Z,93214.41
2018-05-10T15:12:30.835Z,93221.46
2018-05-10T15:14:58.423Z,93220.89
2018-05-10T15:17:25.972Z,93230.29
2018-05-10T15:19:53.528Z,93230.02
2018-05-10T15:22:21.284Z,93235.07
2018-05-10T15:24:48.834Z,93233.30
2018-05-10T15:27:16.429Z,93226.88
2018-05-10T15:29:43.995Z,93230.44
2018-05-10T15:32:11.549Z,93231.28
2018-05-10T15:34:39.124Z,93227.53
2018-05-10T15:37:06.954Z,93222.88
2018-05-10T15:39:34.517Z,93223.41
2018-05-10T15:42:02.069Z,93233.34
2018-05-10T15:44:29.760Z,93231.25
2018-05-10T15:46:57.309Z,93225.77
2018-05-10T15:49:24.885Z,93227.36
2018-05-10T15:51:52.658Z,93227.93
2018-05-10T15:54:20.140Z,93226.63
2018-05-10T15:56:47.695Z,93227.64
2018-05-10T15:59:15.426Z,93223.67
2018-05-10T16:01:42.982Z,93218.07
2018-05-10T16:04:10.527Z,93220.12
2018-05-10T16:06:38.290Z,93217.00
2018-05-10T16:09:05.842Z,93216.73
2018-05-10T16:11:33.390Z,93218.40
2018-05-10T16:14:01.132Z,93211.64
2018-05-10T16:16:28.696Z,93213.33
2018-05-10T16:18:56.251Z,93211.44
2018-05-10T16:21:23.971Z,93208.61
2018-05-10T16:23:51.533Z,93211.31
2018-05-10T16:26:19.084Z,93216.92
2018-05-10T16:28:46.772Z,93215.61
2018-05-10T16:31:14.403Z,93213.77
2018-05-10T16:33:41.935Z,93218.77
2018-05-10T16:36:09.496Z,93218.14
2018-05-10T16:38:37.037Z,93219.23
2018-05-10T16:41:04.645Z,93226.16
2018-05-10T16:43:32.413Z,93224.50
2018-05-10T16:45:59.950Z,93230.58
2018-05-10T16:48:27.484Z,93230.92
2018-05-10T16:50:55.383Z,93234.89
2018-05-10T16:53:23.004Z,93231.68
2018-05-10T16:55:50.530Z,93240.28
2018-05-10T16:58:18.125Z,93246.75
2018-05-10T17:00:45.665Z,93242.41
2018-05-10T17:03:13.219Z,93236.27
2018-05-10T17:05:40.787Z,93238.53
2018-05-10T17:08:08.354Z,93245.54
2018-05-10T17:10:35.905Z,93242.71
2018-05-10T17:13:03.495Z,93240.47
2018-05-10T17:15:31.057Z,93246.55
2018-05-10T17:17:58.634Z,93247.16
2018-05-10T17:20:26.332Z,93249.39
2018-05-10T17:22:53.917Z,93251.28
2018-05-10T17:25:21.460Z,93253.82
2018-05-10T17:27:49.049Z,93256.98
2018-05-10T17:30:16.590Z,93253.72
2018-05-10T17:32:44.330Z,93253.87
2018-05-10T17:35:11.899Z,93257.26
2018-05-10T17:37:39.459Z,93260.76
2018-05-10T17:40:07.028Z,93261.77
2018-05-10T17:42:34.597Z,93267.58
2018-05-10T17:45:02.134Z,93271.48
2018-05-10T17:47:29.814Z,93277.30
2018-05-10T17:49:57.353Z,93277.81
2018-05-10T17:52:24.906Z,93282.62
2018-05-10T17:54:52.838Z,93279.94
2018-05-10T17:57:20.416Z,93284.22
2018-05-10T17:59:47.959Z,93290.99
2018-05-10T18:02:15.707Z,93289.55
2018-05-10T18:04:43.270Z,93296.14
2018-05-10T18:07:10.892Z,93302.02
2018-05-10T18:09:38.737Z,93294.72
2018-05-10T18:12:06.285Z,93298.82
2018-05-10T18:14:33.835Z,93302.28
2018-05-10T18:17:01.423Z,93306.27
2018-05-10T18:19:28.973Z,93311.38
2018-05-10T18:21:56.517Z,93303.63
2018-05-10T18:24:24.310Z,93315.51
2018-05-10T18:26:51.843Z,93308.09
2018-05-10T18:29:19.396Z,93317.89
2018-05-10T18:31:47.093Z,93321.20
2018-05-10T18:34:14.677Z,93327.20
2018-05-10T18:36:42.233Z,93329.47
2018-05-10T18:39:09.818Z,93339.70
2018-05-10T18:41:37.368Z,93341.14
2018-05-10T18:44:04.926Z,93343.72
2018-05-10T18:46:32.850Z,93351.84
2018-05-10T18:49:00.400Z,93348.19
2018-05-10T18:51:27.955Z,93356.93
2018-05-10T18:53:55.541Z,93360.30
2018-05-10T18:56:23.117Z,93367.90
2018-05-10T18:58:50.689Z,93366.62
2018-05-10T19:01:18.400Z,93371.48
2018-05-10T19:03:45.965Z,93373.50
2018-05-10T19:06:13.522Z,93380.75
2018-05-10T19:08:41.283Z,93376.95
2018-05-10T19:11:08.841Z,93378.36
2018-05-10T19:13:36.496Z,93378.44
2018-05-10T19:16:04.206Z,93377.81
2018-05-10T19:18:31.771Z,93381.82
2018-05-10T19:20:59.362Z,93379.84
2018-05-10T19:23:27.280Z,93377.23
2018-05-10T19:25:54.819Z,93377.35
2018-05-10T19:28:22.402Z,93383.11
2018-05-10T19:30:50.322Z,93380.56
2018-05-10T19:33:17.881Z,93383.94
2018-05-10T19:35:45.427Z,93378.88
2018-05-10T19:38:13.922Z,93383.91
2018-05-10T19:40:41.481Z,93384.56
2018-05-10T19:43:09.027Z,93382.03
2018-05-10T19:45:36.623Z,93385.08
2018-05-10T19:48:04.202Z,93380.47
2018-05-10T19:50:31.767Z,93384.56
2018-05-10T19:52:59.519Z,93380.88
2018-05-10T19:55:27.084Z,93385.39
2018-05-10T19:57:54.664Z,93390.30
2018-05-10T20:00:22.256Z,93389.59
2018-05-10T20:02:49.796Z,93388.36
2018-05-10T20:05:17.341Z,93383.81
2018-05-10T20:07:45.067Z,93389.22
2018-05-10T20:10:12.616Z,93384.16
2018-05-10T20:12:40.191Z,93378.31
2018-05-10T20:15:08.125Z,93378.86
2018-05-10T20:17:35.687Z,93373.94
2018-05-10T20:20:03.265Z,93384.56
2018-05-10T20:22:30.845Z,93387.64
2018-05-10T20:24:58.390Z,93391.22
2018-05-10T20:27:25.943Z,93402.18
2018-05-10T20:29:53.628Z,93395.52
2018-05-10T20:32:21.174Z,93398.12
2018-05-10T20:34:48.732Z,93401.42
2018-05-10T20:37:16.441Z,93404.62
2018-05-10T20:39:44.009Z,93408.97
2018-05-10T20:42:11.563Z,93413.06
2018-05-10T20:44:39.174Z,93410.50
2018-05-10T20:47:06.724Z,93420.03
2018-05-10T20:49:34.272Z,93422.90
2018-05-10T20:52:01.963Z,93421.36
2018-05-10T20:54:29.488Z,93419.78
2018-05-10T20:56:57.032Z,93419.03
2018-05-10T20:59:24.920Z,93418.59
2018-05-10T21:01:52.526Z,93422.15
2018-05-10T21:04:20.089Z,93422.53
2018-05-10T21:06:48.012Z,93424.20
2018-05-10T21:09:15.552Z,93429.25
2018-05-10T21:11:43.089Z,93427.04
2018-05-10T21:14:10.831Z,93426.37
2018-05-10T21:16:38.368Z,93428.68
2018-05-10T21:19:05.916Z,93423.48
2018-05-10T21:21:33.494Z,93425.98
2018-05-10T21:24:01.028Z,93435.09
2018-05-10T21:26:28.569Z,93431.74
2018-05-10T21:28:56.159Z,93428.41
2018-05-10T21:31:23.709Z,93427.31
2018-05-10T21:33:51.369Z,93427.16
2018-05-10T21:36:18.868Z,93419.01
2018-05-10T21:38:46.422Z,93421.77
2018-05-10T21:41:14.004Z,93423.80
2018-05-10T21:43:41.565Z,93416.53
2018-05-10T21:46:09.127Z,93425.57
2018-05-10T21:48:36.704Z,93416.67
2018-05-10T21:51:04.244Z,93416.91
2018-05-10T21:53:31.772Z,93425.06
2018-05-10T21:55:59.344Z,93427.52
2018-05-10T21:58:26.899Z,93425.88
2018-05-10T22:00:54.439Z,93424.72
2018-05-10T22:03:22.007Z,93426.26
2018-05-10T22:05:49.550Z,93420.83
2018-05-10T22:08:17.092Z,93433.70
2018-05-10T22:10:44.677Z,93428.28
2018-05-10T22:13:12.213Z,93427.95
2018-05-10T22:15:39.767Z,93424.13
2018-05-10T22:18:07.339Z,93422.94
2018-05-10T22:20:34.887Z,93423.27
2018-05-10T22:23:02.429Z,93417.23
2018-05-10T22:25:30.138Z,93420.23
2018-05-10T22:27:57.687Z,93415.19
2018-05-10T22:30:25.226Z,93415.25
2018-05-10T22:32:52.899Z,93412.28
2018-05-10T22:35:20.435Z,93416.75
2018-05-10T22:37:48.020Z,93415.86
2018-05-10T22:40:15.753Z,93415.01
2018-05-10T22:42:43.312Z,93412.41
2018-05-10T22:45:10.854Z,93416.14
2018-05-10T22:47:38.568Z,93407.73
2018-05-10T22:50:06.110Z,93401.66
2018-05-10T22:52:33.672Z,93403.25
2018-05-10T22:55:01.669Z,93402.30
2018-05-10T22:57:29.222Z,93405.00
2018-05-10T22:59:56.758Z,93403.22
2018-05-10T23:02:24.315Z,93406.02
2018-05-10T23:04:51.852Z,93404.62
2018-05-10T23:07:19.401Z,93405.06
2018-05-10T23:09:47.145Z,93407.59
2018-05-10T23:12:14.683Z,93396.25
2018-05-10T23:14:42.253Z,93393.59
2018-05-10T23:17:09.815Z,93390.20
2018-05-10T23:19:37.348Z,93389.62
2018-05-10T23:22:04.875Z,93393.76
2018-05-10T23:24:32.448Z,93393.04
2018-05-10T23:26:59.991Z,93387.16
2018-05-10T23:29:27.547Z,93398.51
2018-05-10T23:31:55.264Z,93392.63
2018-05-10T23:34:22.812Z,93394.13
2018-05-10T23:36:50.355Z,93391.16
2018-05-10T23:39:17.922Z,93386.31
2018-05-10T23:41:45.460Z,93381.62
2018-05-10T23:44:13.017Z,93379.91
2018-05-10T23:46:40.912Z,93383.78
2018-05-10T23:49:08.457Z,93385.11
2018-05-10T23:51:36.006Z,93386.92
2018-05-10T23:54:03.911Z,93392.08
2018-05-10T23:56:31.521Z,93393.07
2018-05-10T23:58:59.134Z,93401.41
